Time;durP1;ratioP1;P1;durP2;ratioP2;P2;SDS_P1;SDS_P2;PMS_P1;PMS_P2;Temp;Humidity;BMP_temperature;BMP_pressure;BME280_temperature;BME280_humidity;BME280_pressure;Samples;Min_cycle;Max_cycle;Signal;HPM_P1;HPM_P2
2023/09/19 00:00:19;;;;;;;5.13;2.93;;;18.90;1.00;;;;;;5081880;28;20553;-71
2023/09/19 00:02:47;;;;;;;6.90;2.63;;;18.90;1.00;;;;;;5084500;28;20547;-71
2023/09/19 00:05:14;;;;;;;3.20;2.43;;;18.90;1.00;;;;;;5084149;28;20448;-71
2023/09/19 00:07:41;;;;;;;6.20;2.90;;;18.80;1.00;;;;;;5083080;28;20483;-72
2023/09/19 00:10:09;;;;;;;4.73;2.80;;;18.80;1.00;;;;;;5084576;28;20648;-71
2023/09/19 00:12:36;;;;;;;4.70;2.80;;;18.80;1.00;;;;;;5084487;28;20487;-72
2023/09/19 00:15:06;;;;;;;4.73;3.40;;;18.80;1.00;;;;;;5084061;28;20980;-70
2023/09/19 00:17:34;;;;;;;4.23;3.33;;;18.70;1.00;;;;;;5083208;28;20459;-71
2023/09/19 00:20:13;;;;;;;3.10;2.70;;;18.70;1.00;;;;;;5082332;28;20465;-70
2023/09/19 00:22:41;;;;;;;4.87;3.00;;;18.60;1.00;;;;;;5079772;28;20471;-69
2023/09/19 00:25:09;;;;;;;3.53;2.73;;;18.70;1.00;;;;;;5084249;28;20460;-69
2023/09/19 00:27:41;;;;;;;3.63;2.80;;;18.60;1.00;;;;;;5084298;28;20462;-70
2023/09/19 00:30:14;;;;;;;3.43;2.13;;;18.60;1.00;;;;;;5082461;28;20926;-70
2023/09/19 00:32:42;;;;;;;4.30;2.40;;;18.60;1.00;;;;;;5084570;28;20590;-70
2023/09/19 00:35:10;;;;;;;4.03;3.07;;;18.60;1.00;;;;;;5083718;28;20549;-71
2023/09/19 00:37:37;;;;;;;2.63;2.40;;;18.50;1.00;;;;;;5081293;28;20480;-71
2023/09/19 00:40:05;;;;;;;3.00;2.80;;;18.50;1.00;;;;;;5081269;28;20535;-73
2023/09/19 00:42:33;;;;;;;2.70;2.50;;;18.50;1.00;;;;;;5076363;27;20938;-70
2023/09/19 00:45:03;;;;;;;2.53;2.33;;;18.50;1.00;;;;;;5078828;28;20456;-72
2023/09/19 00:47:31;;;;;;;5.17;3.47;;;18.40;1.00;;;;;;5084642;28;21004;-71
2023/09/19 00:49:59;;;;;;;4.30;2.97;;;18.40;1.00;;;;;;5083023;28;20534;-69
2023/09/19 00:52:26;;;;;;;4.70;3.10;;;18.40;1.00;;;;;;5082894;28;20499;-70
2023/09/19 00:54:53;;;;;;;4.40;2.77;;;18.30;1.00;;;;;;5083692;28;20589;-70
2023/09/19 00:57:22;;;;;;;3.00;2.70;;;18.40;1.00;;;;;;5084591;28;20991;-70
2023/09/19 00:59:51;;;;;;;2.70;2.50;;;18.40;1.00;;;;;;5085403;28;20483;-70
2023/09/19 01:02:18;;;;;;;4.27;2.63;;;18.40;1.00;;;;;;5082518;28;20922;-72
2023/09/19 01:04:46;;;;;;;3.00;2.70;;;18.30;1.00;;;;;;5085046;28;21038;-69
2023/09/19 01:07:14;;;;;;;2.97;2.70;;;18.30;1.00;;;;;;5081794;28;20464;-70
2023/09/19 01:09:42;;;;;;;3.83;2.87;;;18.40;1.00;;;;;;5083137;28;20483;-70
2023/09/19 01:12:10;;;;;;;4.27;2.73;;;18.40;1.00;;;;;;5082956;28;20545;-70
2023/09/19 01:14:47;;;;;;;4.00;2.70;;;18.40;1.00;;;;;;5083282;28;20597;-70
2023/09/19 01:17:22;;;;;;;4.07;2.60;;;18.30;1.00;;;;;;5081534;28;20441;-71
2023/09/19 01:20:18;;;;;;;4.13;2.70;;;18.30;1.00;;;;;;5085499;28;20541;-70
2023/09/19 01:22:57;;;;;;;5.10;2.67;;;18.30;1.00;;;;;;5082718;28;20468;-69
2023/09/19 01:25:43;;;;;;;5.93;2.70;;;18.30;1.00;;;;;;5085311;28;20533;-70
2023/09/19 01:28:32;;;;;;;3.30;2.40;;;18.30;1.00;;;;;;5082623;28;20493;-73
2023/09/19 01:31:04;;;;;;;5.47;2.53;;;18.30;1.00;;;;;;5083722;28;20550;-74
2023/09/19 01:33:59;;;;;;;3.07;2.77;;;18.30;1.00;;;;;;5083409;28;20533;-73
2023/09/19 01:36:27;;;;;;;5.20;2.70;;;18.40;1.00;;;;;;5081932;28;20550;-73
2023/09/19 01:38:55;;;;;;;3.37;3.07;;;18.40;1.00;;;;;;5081164;28;20490;-74
2023/09/19 01:41:39;;;;;;;3.40;3.00;;;18.40;1.00;;;;;;5082717;28;20603;-74
2023/09/19 01:44:12;;;;;;;4.00;2.63;;;18.40;1.00;;;;;;5080945;28;20478;-75
2023/09/19 01:46:42;;;;;;;5.93;2.70;;;18.40;1.00;;;;;;5084839;28;20512;-76
2023/09/19 01:49:23;;;;;;;2.80;2.30;;;18.40;1.00;;;;;;5083229;28;20583;-74
2023/09/19 01:51:57;;;;;;;4.37;2.83;;;18.40;1.00;;;;;;5081560;28;20484;-73
2023/09/19 01:54:31;;;;;;;2.97;2.20;;;18.50;1.00;;;;;;5083299;28;20544;-74
2023/09/19 01:57:05;;;;;;;3.80;2.30;;;18.50;1.00;;;;;;5082658;28;20520;-74
2023/09/19 01:59:37;;;;;;;2.80;2.43;;;18.50;1.00;;;;;;5081395;28;20572;-74
2023/09/19 02:02:08;;;;;;;3.70;2.20;;;18.60;1.00;;;;;;5085045;28;20543;-73
2023/09/19 02:04:35;;;;;;;3.90;2.50;;;18.50;1.00;;;;;;5086764;28;20883;-73
2023/09/19 02:07:05;;;;;;;3.60;2.50;;;18.50;1.00;;;;;;5081878;28;20943;-74
2023/09/19 02:09:35;;;;;;;4.67;2.50;;;18.50;1.00;;;;;;5084410;28;20487;-74
2023/09/19 02:12:04;;;;;;;2.93;2.63;;;18.50;1.00;;;;;;5080934;28;20515;-74
2023/09/19 02:14:32;;;;;;;2.83;2.50;;;18.40;1.00;;;;;;5089365;28;21210;-73
2023/09/19 02:16:59;;;;;;;4.90;2.77;;;18.40;1.00;;;;;;5086133;28;20960;-73
2023/09/19 02:19:28;;;;;;;5.83;3.20;;;18.30;1.00;;;;;;5084284;28;20518;-75
2023/09/19 02:21:54;;;;;;;4.20;2.87;;;18.20;1.00;;;;;;5087280;28;20459;-75
2023/09/19 02:24:21;;;;;;;3.47;2.53;;;18.20;1.00;;;;;;5084812;28;20543;-73
2023/09/19 02:26:48;;;;;;;2.83;2.30;;;18.20;1.00;;;;;;5083377;28;20442;-73
2023/09/19 02:29:15;;;;;;;3.50;3.20;;;18.20;1.00;;;;;;5084098;28;20517;-73
2023/09/19 02:31:42;;;;;;;3.93;2.83;;;18.20;1.00;;;;;;5084781;28;20842;-73
2023/09/19 02:34:12;;;;;;;3.73;3.27;;;18.20;1.00;;;;;;5083809;28;20542;-74
2023/09/19 02:36:41;;;;;;;4.17;2.90;;;18.20;1.00;;;;;;5085482;28;20471;-74
2023/09/19 02:39:08;;;;;;;2.97;2.73;;;18.20;1.00;;;;;;5083446;28;20488;-73
2023/09/19 02:41:35;;;;;;;4.63;3.17;;;18.10;1.00;;;;;;5089294;28;20558;-72
2023/09/19 02:44:02;;;;;;;4.73;3.00;;;18.10;1.00;;;;;;5087624;28;20567;-74
2023/09/19 02:46:30;;;;;;;3.10;2.80;;;18.10;1.00;;;;;;5086298;28;20466;-72
2023/09/19 02:48:57;;;;;;;5.60;4.20;;;18.10;1.00;;;;;;5087797;28;20546;-74
2023/09/19 02:51:24;;;;;;;2.90;2.70;;;18.10;1.00;;;;;;5087979;28;20474;-73
2023/09/19 02:53:54;;;;;;;4.83;3.60;;;18.10;1.00;;;;;;5085313;28;20468;-73
2023/09/19 02:56:22;;;;;;;3.20;2.73;;;18.10;1.00;;;;;;5087007;28;22035;-74
2023/09/19 02:58:49;;;;;;;3.30;2.27;;;18.10;1.00;;;;;;5085079;28;20487;-74
2023/09/19 03:01:18;;;;;;;2.50;2.30;;;18.10;1.00;;;;;;5085872;28;20453;-74
2023/09/19 03:03:45;;;;;;;5.00;2.70;;;18.00;1.00;;;;;;5089997;28;20916;-73
2023/09/19 03:06:13;;;;;;;3.87;2.83;;;18.10;1.00;;;;;;5086075;28;21238;-73
2023/09/19 03:08:42;;;;;;;5.10;2.70;;;18.00;1.00;;;;;;5086340;28;20601;-74
2023/09/19 03:11:26;;;;;;;2.80;2.60;;;18.00;1.00;;;;;;5084071;28;20511;-73
2023/09/19 03:13:54;;;;;;;7.80;2.60;;;18.00;1.00;;;;;;5080972;28;20478;-72
2023/09/19 03:16:21;;;;;;;3.43;2.70;;;18.10;1.00;;;;;;5085014;28;20969;-73
2023/09/19 03:18:48;;;;;;;2.90;2.30;;;18.10;1.00;;;;;;5086767;28;20489;-74
2023/09/19 03:21:16;;;;;;;4.00;2.77;;;18.10;1.00;;;;;;5086020;28;20530;-74
2023/09/19 03:24:14;;;;;;;3.47;2.60;;;18.10;1.00;;;;;;5086678;28;20468;-73
2023/09/19 03:26:43;;;;;;;4.10;2.53;;;18.10;1.00;;;;;;5084864;28;20585;-73
2023/09/19 03:29:10;;;;;;;2.57;2.37;;;18.10;1.00;;;;;;5086600;28;20482;-74
2023/09/19 03:31:37;;;;;;;4.17;2.50;;;18.20;1.00;;;;;;5087811;28;20557;-74
2023/09/19 03:34:05;;;;;;;4.07;2.60;;;18.20;1.00;;;;;;5085916;28;20464;-76
2023/09/19 03:39:14;;;;;;;7.80;3.13;;;18.20;1.00;;;;;;5080819;28;20603;-74
2023/09/19 03:41:43;;;;;;;2.17;1.90;;;18.20;1.00;;;;;;5082627;28;20539;-77
2023/09/19 03:44:10;;;;;;;4.20;2.13;;;18.20;1.00;;;;;;5085643;28;20636;-73
2023/09/19 03:46:37;;;;;;;2.33;2.13;;;18.20;1.00;;;;;;5082397;28;20513;-74
2023/09/19 03:49:04;;;;;;;2.20;2.00;;;18.20;1.00;;;;;;5084192;28;20471;-73
2023/09/19 03:51:31;;;;;;;3.83;2.27;;;18.20;1.00;;;;;;5083552;28;20467;-73
2023/09/19 03:53:58;;;;;;;3.60;2.60;;;18.20;1.00;;;;;;5085632;28;20476;-74
2023/09/19 03:56:25;;;;;;;2.13;1.93;;;18.20;1.00;;;;;;5085028;28;20919;-74
2023/09/19 03:58:53;;;;;;;2.50;2.20;;;18.20;1.00;;;;;;5083732;28;20487;-73
2023/09/19 04:01:20;;;;;;;2.70;1.73;;;18.20;1.00;;;;;;5083710;28;20448;-74
2023/09/19 04:03:47;;;;;;;2.37;2.00;;;18.20;1.00;;;;;;5083381;28;20460;-73
2023/09/19 04:06:14;;;;;;;4.10;2.90;;;18.10;1.00;;;;;;5079564;28;20956;-73
2023/09/19 04:08:41;;;;;;;6.13;2.00;;;18.10;1.00;;;;;;5084968;28;20551;-73
2023/09/19 04:11:08;;;;;;;2.93;2.63;;;18.10;1.00;;;;;;5081709;28;20920;-74
2023/09/19 04:13:36;;;;;;;3.80;2.07;;;18.00;1.00;;;;;;5084205;28;20831;-72
2023/09/19 04:16:05;;;;;;;4.93;2.60;;;18.00;1.00;;;;;;5082313;28;20956;-74
2023/09/19 04:18:33;;;;;;;2.20;1.97;;;18.00;1.00;;;;;;5085397;28;20494;-74
2023/09/19 04:21:02;;;;;;;3.70;2.87;;;18.00;1.00;;;;;;5081400;28;20454;-74
2023/09/19 04:23:29;;;;;;;3.77;2.57;;;18.00;1.00;;;;;;5082478;28;21017;-74
2023/09/19 04:25:56;;;;;;;2.93;2.63;;;18.00;1.00;;;;;;5081995;28;20472;-74
2023/09/19 04:28:24;;;;;;;2.63;2.43;;;17.90;1.00;;;;;;5086600;28;20471;-74
2023/09/19 04:30:51;;;;;;;3.70;2.73;;;17.90;1.00;;;;;;5084491;28;20542;-73
2023/09/19 04:33:19;;;;;;;4.93;2.10;;;18.00;1.00;;;;;;5085456;28;20891;-74
2023/09/19 04:35:46;;;;;;;4.00;2.90;;;17.90;1.00;;;;;;5087558;28;20462;-74
2023/09/19 04:38:14;;;;;;;2.47;2.10;;;18.00;1.00;;;;;;5080223;28;20828;-73
2023/09/19 04:40:41;;;;;;;3.23;2.93;;;18.00;1.00;;;;;;5080094;28;20885;-74
2023/09/19 04:43:08;;;;;;;2.60;1.80;;;18.00;1.00;;;;;;5085392;28;20550;-74
2023/09/19 04:45:35;;;;;;;2.10;1.90;;;18.00;1.00;;;;;;5083998;28;20542;-74
2023/09/19 04:48:03;;;;;;;2.60;2.40;;;18.00;1.00;;;;;;5083836;28;20474;-73
2023/09/19 04:50:31;;;;;;;4.53;2.10;;;18.00;1.00;;;;;;5081191;28;20944;-75
2023/09/19 04:52:59;;;;;;;2.40;2.20;;;18.00;1.00;;;;;;5077746;28;20669;-74
2023/09/19 04:55:26;;;;;;;4.43;2.57;;;18.00;1.00;;;;;;5084553;28;20451;-74
2023/09/19 04:57:53;;;;;;;3.30;2.13;;;18.00;1.00;;;;;;5080166;28;20538;-73
2023/09/19 05:00:23;;;;;;;3.67;1.90;;;17.90;1.00;;;;;;5081517;28;20476;-74
2023/09/19 05:02:52;;;;;;;2.07;1.87;;;17.90;1.00;;;;;;5081019;28;20942;-74
2023/09/19 05:05:22;;;;;;;3.50;2.47;;;18.00;1.00;;;;;;5079870;28;20465;-74
2023/09/19 05:07:51;;;;;;;3.23;2.40;;;17.90;1.00;;;;;;5079437;28;20485;-74
2023/09/19 05:10:18;;;;;;;4.10;2.60;;;17.90;1.00;;;;;;5079996;28;21077;-74
2023/09/19 05:12:47;;;;;;;3.10;1.73;;;17.90;1.00;;;;;;5085860;28;20497;-75
2023/09/19 05:15:16;;;;;;;3.80;2.40;;;17.90;1.00;;;;;;5085999;28;20541;-75
2023/09/19 05:17:50;;;;;;;2.60;1.83;;;17.80;1.00;;;;;;5084848;28;21021;-75
2023/09/19 05:20:24;;;;;;;3.50;2.33;;;17.80;1.00;;;;;;5083928;28;20441;-74
2023/09/19 05:23:01;;;;;;;3.70;2.40;;;17.80;1.00;;;;;;5082600;28;20455;-74
2023/09/19 05:25:29;;;;;;;2.57;2.20;;;17.80;1.00;;;;;;5084876;28;20477;-74
2023/09/19 05:27:57;;;;;;;5.57;2.33;;;17.80;1.00;;;;;;5081020;28;20799;-74
2023/09/19 05:30:24;;;;;;;4.50;3.07;;;17.70;1.00;;;;;;5083897;28;20473;-74
2023/09/19 05:32:52;;;;;;;3.83;2.10;;;17.80;1.00;;;;;;5079805;28;20555;-72
2023/09/19 05:35:21;;;;;;;2.70;2.30;;;17.70;1.00;;;;;;5082488;28;20455;-75
2023/09/19 05:37:48;;;;;;;4.57;2.40;;;17.70;1.00;;;;;;5084789;28;20459;-73
2023/09/19 05:40:17;;;;;;;2.70;2.50;;;17.70;1.00;;;;;;5083512;28;20566;-75
2023/09/19 05:42:45;;;;;;;3.13;2.30;;;17.70;1.00;;;;;;5086462;28;20465;-76
2023/09/19 05:45:12;;;;;;;5.17;3.30;;;17.70;1.00;;;;;;5084051;28;20443;-75
2023/09/19 05:47:41;;;;;;;2.97;2.10;;;17.70;1.00;;;;;;5085817;28;20569;-74
2023/09/19 05:50:09;;;;;;;3.10;2.17;;;17.70;1.00;;;;;;5086770;28;21066;-74
2023/09/19 05:52:36;;;;;;;3.70;2.40;;;17.70;1.00;;;;;;5082657;28;20479;-75
2023/09/19 05:55:05;;;;;;;5.17;3.40;;;17.80;1.00;;;;;;5088567;28;21015;-74
2023/09/19 05:57:33;;;;;;;4.30;2.63;;;17.80;1.00;;;;;;5084556;28;20721;-75
2023/09/19 06:00:00;;;;;;;4.00;2.40;;;17.80;1.00;;;;;;5084389;28;20462;-73
2023/09/19 06:02:29;;;;;;;3.53;2.47;;;17.80;1.00;;;;;;5085402;28;20535;-74
2023/09/19 06:04:57;;;;;;;5.50;2.80;;;17.80;1.00;;;;;;5084106;28;20936;-73
2023/09/19 06:07:25;;;;;;;3.97;2.93;;;17.80;1.00;;;;;;5079994;28;20967;-74
2023/09/19 06:09:53;;;;;;;3.33;2.13;;;17.80;1.00;;;;;;5082436;28;20506;-74
2023/09/19 06:12:20;;;;;;;4.40;2.43;;;17.90;1.00;;;;;;5085211;28;20466;-74
2023/09/19 06:14:49;;;;;;;2.60;2.40;;;17.80;1.00;;;;;;5086103;28;20508;-73
2023/09/19 06:17:17;;;;;;;2.87;2.67;;;17.80;1.00;;;;;;5085497;28;20468;-75
2023/09/19 06:19:47;;;;;;;2.97;2.27;;;17.80;1.00;;;;;;5085451;28;20477;-76
2023/09/19 06:22:17;;;;;;;3.10;2.27;;;17.80;1.00;;;;;;5086906;28;20585;-74
2023/09/19 06:24:44;;;;;;;4.30;2.90;;;17.80;1.00;;;;;;5086390;28;20562;-74
2023/09/19 06:27:11;;;;;;;4.37;2.80;;;17.80;1.00;;;;;;5084494;28;20675;-75
2023/09/19 06:29:38;;;;;;;3.93;3.30;;;17.80;1.00;;;;;;5085945;28;20466;-74
2023/09/19 06:32:12;;;;;;;5.00;2.87;;;17.90;1.00;;;;;;5081887;28;20466;-73
2023/09/19 06:34:43;;;;;;;5.80;2.77;;;17.90;1.00;;;;;;5085634;28;20859;-75
2023/09/19 06:37:09;;;;;;;4.60;3.07;;;17.90;1.00;;;;;;5081606;28;20472;-73
2023/09/19 06:39:36;;;;;;;3.40;2.40;;;17.90;1.00;;;;;;5086701;28;20496;-72
2023/09/19 06:42:05;;;;;;;3.10;2.50;;;17.90;1.00;;;;;;5084348;28;20482;-74
2023/09/19 06:44:32;;;;;;;3.83;2.70;;;18.00;1.00;;;;;;5088303;28;20537;-73
2023/09/19 06:46:59;;;;;;;3.53;2.50;;;18.00;1.00;;;;;;5085132;28;20494;-73
2023/09/19 06:49:29;;;;;;;5.83;2.30;;;18.10;1.00;;;;;;5085089;28;20543;-72
2023/09/19 06:51:57;;;;;;;6.73;2.50;;;18.10;1.00;;;;;;5083054;28;21249;-74
2023/09/19 06:54:24;;;;;;;4.17;3.07;;;18.20;1.00;;;;;;5084364;28;20500;-72
2023/09/19 06:56:51;;;;;;;5.90;2.50;;;18.30;1.00;;;;;;5083868;28;20609;-75
2023/09/19 07:01:53;;;;;;;5.40;3.20;;;18.40;1.00;;;;;;4365843;25;20471;-79
2023/09/19 07:04:20;;;;;;;3.73;2.67;;;18.50;1.00;;;;;;5112894;27;20482;-79
2023/09/19 07:06:52;;;;;;;4.90;3.40;;;18.60;1.00;;;;;;5113879;27;20470;-79
2023/09/19 07:09:19;;;;;;;3.60;3.10;;;18.70;1.00;;;;;;5108459;27;20524;-79
2023/09/19 07:11:51;;;;;;;4.30;2.67;;;18.90;1.00;;;;;;5106501;27;20475;-78
2023/09/19 07:14:18;;;;;;;3.83;2.50;;;19.10;1.00;;;;;;5110222;27;20452;-78
2023/09/19 07:16:45;;;;;;;4.60;2.90;;;19.30;1.00;;;;;;5111921;27;20915;-80
2023/09/19 07:19:14;;;;;;;5.10;2.73;;;19.60;1.00;;;;;;5110493;28;20502;-79
2023/09/19 07:21:42;;;;;;;4.07;2.50;;;19.90;1.00;;;;;;5109626;28;20491;-78
2023/09/19 07:24:11;;;;;;;5.53;2.80;;;20.20;1.00;;;;;;5094772;27;20457;-78
2023/09/19 07:26:39;;;;;;;4.37;2.60;;;20.30;1.00;;;;;;5090577;28;20507;-79
2023/09/19 07:29:08;;;;;;;3.37;2.70;;;20.20;1.00;;;;;;5106156;27;20456;-79
2023/09/19 07:31:35;;;;;;;4.00;2.80;;;20.20;1.00;;;;;;5108329;28;20462;-78
2023/09/19 07:34:03;;;;;;;8.43;3.10;;;20.20;1.00;;;;;;5106321;27;22023;-79
2023/09/19 07:36:32;;;;;;;4.77;3.00;;;20.10;1.00;;;;;;5110120;27;20472;-78
2023/09/19 07:39:00;;;;;;;3.93;3.33;;;20.10;1.00;;;;;;5104810;27;20456;-80
2023/09/19 07:41:30;;;;;;;4.23;2.90;;;20.10;1.00;;;;;;5111018;27;20874;-78
2023/09/19 07:43:57;;;;;;;2.63;2.40;;;20.20;1.00;;;;;;5104903;28;20488;-79
2023/09/19 07:46:24;;;;;;;8.33;3.37;;;20.40;1.00;;;;;;5106895;27;20456;-79
2023/09/19 07:48:51;;;;;;;4.60;3.00;;;20.30;1.00;;;;;;5109504;27;20536;-79
2023/09/19 07:51:18;;;;;;;6.00;3.73;;;20.30;1.00;;;;;;5107766;27;20466;-79
2023/09/19 07:53:48;;;;;;;5.50;3.50;;;20.10;1.00;;;;;;5107234;27;21015;-78
2023/09/19 07:56:15;;;;;;;4.40;3.20;;;20.10;1.00;;;;;;5107043;27;20472;-79
2023/09/19 07:58:44;;;;;;;10.03;4.50;;;20.00;1.00;;;;;;5103587;27;20595;-79
2023/09/19 08:01:12;;;;;;;8.33;3.97;;;20.00;1.00;;;;;;5108360;27;20461;-79
2023/09/19 08:03:40;;;;;;;5.60;3.87;;;20.10;1.00;;;;;;5107310;28;20449;-79
2023/09/19 08:06:08;;;;;;;5.47;3.60;;;20.20;1.00;;;;;;5110119;27;20477;-79
2023/09/19 08:08:36;;;;;;;4.60;3.53;;;20.30;1.00;;;;;;5108091;27;20460;-79
2023/09/19 08:11:10;;;;;;;3.70;3.20;;;20.60;1.00;;;;;;5107094;27;21005;-79
2023/09/19 08:13:43;;;;;;;5.77;3.50;;;20.80;1.00;;;;;;5107264;27;20946;-79
2023/09/19 08:16:11;;;;;;;6.43;3.70;;;21.00;1.00;;;;;;5105951;27;20581;-80
2023/09/19 08:18:39;;;;;;;4.63;3.23;;;20.80;1.00;;;;;;5107485;27;20463;-79
2023/09/19 08:21:08;;;;;;;8.67;3.70;;;20.80;1.00;;;;;;5110079;27;20560;-80
2023/09/19 08:23:35;;;;;;;4.50;3.30;;;21.00;1.00;;;;;;5108591;27;20470;-78
2023/09/19 08:26:06;;;;;;;6.77;3.10;;;21.00;1.00;;;;;;5108288;27;20569;-80
2023/09/19 08:28:33;;;;;;;4.23;3.00;;;21.20;1.00;;;;;;5109647;27;20801;-79
2023/09/19 08:31:05;;;;;;;6.53;2.90;;;21.00;1.00;;;;;;5104024;27;20457;-79
2023/09/19 08:33:36;;;;;;;6.83;3.10;;;20.70;1.00;;;;;;5104582;27;20460;-80
2023/09/19 08:36:04;;;;;;;4.27;3.33;;;20.40;1.00;;;;;;5105445;27;20477;-79
2023/09/19 08:38:33;;;;;;;4.37;3.00;;;20.20;1.00;;;;;;5106821;27;20975;-79
2023/09/19 08:41:00;;;;;;;5.60;3.80;;;20.10;1.00;;;;;;5106201;27;20448;-78
2023/09/19 08:43:28;;;;;;;8.13;4.03;;;20.10;1.00;;;;;;5107713;27;21091;-79
2023/09/19 08:46:07;;;;;;;5.23;3.47;;;20.10;1.00;;;;;;5105826;27;20539;-78
2023/09/19 08:48:44;;;;;;;5.77;3.77;;;20.10;1.00;;;;;;5107846;27;20453;-79
2023/09/19 08:51:19;;;;;;;8.40;3.80;;;20.20;1.00;;;;;;5107047;27;20490;-77
2023/09/19 08:53:52;;;;;;;6.57;3.80;;;20.20;1.00;;;;;;5104217;27;20463;-78
2023/09/19 08:56:23;;;;;;;4.00;3.63;;;20.20;1.00;;;;;;5105742;27;21320;-78
2023/09/19 08:58:54;;;;;;;4.33;3.63;;;20.40;1.00;;;;;;5109560;27;20470;-79
2023/09/19 09:01:24;;;;;;;7.20;4.00;;;20.70;1.00;;;;;;5107915;27;20429;-79
2023/09/19 09:03:55;;;;;;;5.93;3.90;;;21.10;1.00;;;;;;5089006;28;20468;-78
2023/09/19 09:06:23;;;;;;;7.30;3.70;;;21.40;1.00;;;;;;5105591;27;20478;-77
2023/09/19 09:08:51;;;;;;;4.90;2.87;;;21.70;1.00;;;;;;5109911;27;20444;-77
2023/09/19 09:11:19;;;;;;;5.70;3.30;;;22.10;1.00;;;;;;5092329;27;21026;-79
2023/09/19 09:13:47;;;;;;;6.60;3.40;;;22.90;1.00;;;;;;5113721;28;20466;-79
2023/09/19 09:16:18;;;;;;;3.33;3.03;;;23.70;1.00;;;;;;5113261;28;20529;-80
2023/09/19 09:18:45;;;;;;;3.10;2.90;;;24.30;1.00;;;;;;5094772;28;20537;-80
2023/09/19 09:21:15;;;;;;;3.60;3.13;;;24.90;1.00;;;;;;5113047;27;20568;-80
2023/09/19 09:23:42;;;;;;;6.70;3.40;;;25.50;1.00;;;;;;5115068;27;20578;-78
2023/09/19 09:26:09;;;;;;;4.37;3.23;;;25.80;1.00;;;;;;5115267;27;20476;-79
2023/09/19 09:28:39;;;;;;;4.20;3.30;;;26.50;1.00;;;;;;5115058;28;20530;-78
2023/09/19 09:31:09;;;;;;;5.87;3.87;;;27.10;1.00;;;;;;5113846;27;20461;-82
2023/09/19 09:33:37;;;;;;;4.45;4.10;;;27.70;1.00;;;;;;5114207;28;21849;-79
2023/09/19 09:36:06;;;;;;;4.93;3.30;;;28.70;1.00;;;;;;5113176;28;20468;-80
2023/09/19 09:38:48;;;;;;;5.00;3.27;;;29.40;1.00;;;;;;5111303;28;20982;-80
2023/09/19 09:41:27;;;;;;;4.73;4.20;;;29.40;1.00;;;;;;5112149;27;20448;-79
2023/09/19 09:43:54;;;;;;;5.80;2.70;;;28.50;1.00;;;;;;5112276;27;20570;-80
2023/09/19 09:49:31;;;;;;;5.87;4.13;;;28.90;1.00;;;;;;5109889;27;21197;-80
2023/09/19 09:52:05;;;;;;;4.03;3.60;;;29.80;1.00;;;;;;5110783;27;20424;-80
2023/09/19 09:54:36;;;;;;;3.90;3.40;;;30.10;1.00;;;;;;5114739;27;20468;-81
2023/09/19 09:57:18;;;;;;;6.87;4.00;;;31.00;1.00;;;;;;5112574;27;20468;-79
2023/09/19 09:59:50;;;;;;;5.70;4.37;;;31.50;1.00;;;;;;5113839;28;20598;-78
2023/09/19 10:02:28;;;;;;;4.23;3.50;;;31.00;1.00;;;;;;5075609;28;20481;-79
2023/09/19 10:05:09;;;;;;;6.07;4.00;;;30.70;1.00;;;;;;5078117;28;20528;-80
2023/09/19 10:07:40;;;;;;;3.97;3.00;;;30.80;1.00;;;;;;5075335;28;20483;-77
2023/09/19 10:10:15;;;;;;;5.57;3.67;;;31.20;1.00;;;;;;5068371;28;20516;-80
2023/09/19 10:12:48;;;;;;;3.17;2.80;;;30.90;1.00;;;;;;5072952;28;20459;-80
2023/09/19 10:15:20;;;;;;;5.00;2.87;;;30.10;1.00;;;;;;5070126;28;20480;-78
2023/09/19 10:17:47;;;;;;;5.10;3.20;;;30.00;1.00;;;;;;5068633;28;20477;-78
2023/09/19 10:20:24;;;;;;;4.77;3.43;;;30.40;1.00;;;;;;5068971;28;22157;-78
2023/09/19 10:22:57;;;;;;;4.23;3.23;;;30.60;1.00;;;;;;5073327;28;20464;-78
2023/09/19 10:25:30;;;;;;;4.30;2.93;;;31.10;1.00;;;;;;5066236;28;20525;-79
2023/09/19 10:28:02;;;;;;;7.90;3.70;;;31.10;1.00;;;;;;5061771;28;20478;-78
2023/09/19 10:30:34;;;;;;;4.00;2.80;;;31.20;1.00;;;;;;5068157;28;20446;-79
2023/09/19 10:33:05;;;;;;;6.00;3.80;;;31.60;1.00;;;;;;5070146;28;20462;-79
2023/09/19 10:35:34;;;;;;;5.67;2.83;;;31.80;1.00;;;;;;5070633;28;20470;-78
2023/09/19 10:38:03;;;;;;;5.10;2.77;;;31.80;1.00;;;;;;5073604;28;20537;-79
2023/09/19 10:40:33;;;;;;;5.23;3.30;;;32.30;1.00;;;;;;5071378;28;20467;-78
2023/09/19 10:43:06;;;;;;;4.40;2.80;;;33.10;1.00;;;;;;5069463;28;20463;-79
2023/09/19 10:45:35;;;;;;;3.83;2.90;;;33.40;1.00;;;;;;5074370;28;20487;-77
2023/09/19 10:48:03;;;;;;;4.67;3.70;;;33.60;1.00;;;;;;5068332;28;20503;-78
2023/09/19 10:50:36;;;;;;;3.50;3.20;;;33.80;1.00;;;;;;5071631;28;20458;-78
2023/09/19 10:53:08;;;;;;;3.97;3.50;;;34.60;1.00;;;;;;5071622;28;20483;-79
2023/09/19 10:55:37;;;;;;;3.13;2.63;;;34.10;1.00;;;;;;5071465;28;20890;-79
2023/09/19 10:58:14;;;;;;;3.97;3.03;;;33.60;1.00;;;;;;5071642;28;20525;-79
2023/09/19 11:00:55;;;;;;;5.80;3.70;;;31.70;1.00;;;;;;5084313;27;20477;-78
2023/09/19 11:03:30;;;;;;;3.67;3.07;;;31.00;1.00;;;;;;5110414;28;20464;-78
2023/09/19 11:06:10;;;;;;;3.30;3.00;;;31.20;1.00;;;;;;5108774;27;20461;-78
2023/09/19 11:09:21;;;;;;;5.37;2.67;;;31.60;1.00;;;;;;5112746;28;20883;-80
2023/09/19 11:11:52;;;;;;;3.33;3.00;;;31.60;1.00;;;;;;5113189;28;20454;-79
2023/09/19 11:14:47;;;;;;;4.03;2.80;;;31.30;1.00;;;;;;5111586;28;20543;-79
2023/09/19 11:17:46;;;;;;;7.10;3.87;;;30.50;1.00;;;;;;5107848;27;20449;-80
2023/09/19 11:20:25;;;;;;;6.93;3.30;;;29.80;1.00;;;;;;5110453;28;23052;-80
2023/09/19 11:23:25;;;;;;;6.13;3.30;;;29.90;1.00;;;;;;5100142;28;20455;-80
2023/09/19 11:25:54;;;;;;;5.50;3.30;;;30.40;1.00;;;;;;5105199;27;20475;-81
2023/09/19 11:28:33;;;;;;;4.43;3.33;;;30.70;1.00;;;;;;5111650;27;20470;-80
2023/09/19 11:31:21;;;;;;;5.03;2.57;;;30.10;1.00;;;;;;5110430;28;20480;-80
2023/09/19 11:33:49;;;;;;;3.93;2.90;;;30.20;1.00;;;;;;5108172;27;20462;-79
2023/09/19 11:36:19;;;;;;;3.57;2.73;;;30.70;1.00;;;;;;5109946;27;20460;-77
2023/09/19 11:39:01;;;;;;;4.37;2.63;;;31.20;1.00;;;;;;5110509;27;20453;-79
2023/09/19 11:41:41;;;;;;;3.13;2.83;;;31.50;1.00;;;;;;5105791;27;20900;-79
2023/09/19 11:44:37;;;;;;;3.30;2.63;;;30.50;1.00;;;;;;5107412;27;20455;-79
2023/09/19 11:47:07;;;;;;;3.27;2.47;;;29.40;1.00;;;;;;5110049;27;20530;-77
2023/09/19 11:49:36;;;;;;;4.83;2.50;;;28.20;1.00;;;;;;5107841;27;20451;-79
2023/09/19 11:52:08;;;;;;;4.47;2.90;;;27.10;1.00;;;;;;5089560;28;20541;-79
2023/09/19 11:54:40;;;;;;;4.53;2.90;;;26.40;1.00;;;;;;5078122;27;20458;-77
2023/09/19 11:57:08;;;;;;;5.20;3.00;;;26.70;1.00;;;;;;5106777;27;20487;-77
2023/09/19 11:59:40;;;;;;;9.40;4.80;;;26.30;1.00;;;;;;5109283;27;20512;-81
2023/09/19 12:02:08;;;;;;;5.00;2.97;;;26.20;1.00;;;;;;5109114;27;20493;-78
2023/09/19 12:04:37;;;;;;;4.43;2.97;;;26.90;1.00;;;;;;5108132;27;20448;-79
2023/09/19 12:07:10;;;;;;;3.10;2.40;;;27.60;1.00;;;;;;5106902;27;20520;-77
2023/09/19 12:09:44;;;;;;;4.37;2.60;;;27.90;1.00;;;;;;5109256;28;20458;-79
2023/09/19 12:12:16;;;;;;;5.50;2.57;;;27.90;1.00;;;;;;5108862;27;20529;-79
2023/09/19 12:14:49;;;;;;;5.20;2.00;;;28.00;1.00;;;;;;5107148;27;20957;-79
2023/09/19 12:17:18;;;;;;;4.60;2.10;;;28.20;1.00;;;;;;5111083;27;20468;-78
2023/09/19 12:19:52;;;;;;;3.20;2.40;;;28.20;1.00;;;;;;5106212;27;20460;-78
2023/09/19 12:22:20;;;;;;;4.33;2.43;;;28.10;1.00;;;;;;5108589;27;20463;-79
2023/09/19 12:24:48;;;;;;;9.63;2.70;;;27.70;1.00;;;;;;5104479;27;20452;-79
2023/09/19 12:27:15;;;;;;;4.60;2.63;;;27.70;1.00;;;;;;5111064;27;21492;-80
2023/09/19 12:29:48;;;;;;;4.13;2.37;;;28.00;1.00;;;;;;5106527;27;20523;-81
2023/09/19 12:32:16;;;;;;;4.33;2.67;;;27.90;1.00;;;;;;5107646;28;21530;-80
2023/09/19 12:34:52;;;;;;;3.83;2.67;;;27.90;1.00;;;;;;5112544;27;20467;-83
2023/09/19 12:37:22;;;;;;;4.40;2.47;;;27.80;1.00;;;;;;5109313;27;20546;-81
2023/09/19 12:39:52;;;;;;;3.63;2.30;;;27.60;1.00;;;;;;5106306;27;21609;-79
2023/09/19 12:42:21;;;;;;;3.00;2.20;;;27.50;1.00;;;;;;5101168;27;20464;-81
2023/09/19 12:44:55;;;;;;;4.23;2.10;;;27.90;1.00;;;;;;5106014;27;20981;-82
2023/09/19 12:47:23;;;;;;;5.13;2.30;;;28.10;1.00;;;;;;5110597;27;20548;-80
2023/09/19 12:50:18;;;;;;;4.47;3.10;;;28.30;1.00;;;;;;5080121;28;20545;-80
2023/09/19 12:52:48;;;;;;;3.17;1.97;;;28.50;1.00;;;;;;5107208;27;21105;-79
2023/09/19 12:55:22;;;;;;;5.50;2.07;;;28.70;1.00;;;;;;5110766;27;20496;-80
2023/09/19 12:58:11;;;;;;;4.40;2.50;;;28.80;1.00;;;;;;5109362;27;20548;-80
2023/09/19 13:00:41;;;;;;;4.60;2.33;;;28.00;1.00;;;;;;5106229;27;20594;-80
2023/09/19 13:03:21;;;;;;;2.37;2.17;;;27.90;1.00;;;;;;5108810;27;20474;-80
2023/09/19 13:06:00;;;;;;;2.87;2.03;;;27.90;1.00;;;;;;5107923;27;20832;-78
2023/09/19 13:08:29;;;;;;;4.27;2.23;;;27.40;1.00;;;;;;5107331;27;20550;-80
2023/09/19 13:11:12;;;;;;;3.03;2.00;;;26.70;1.00;;;;;;5108729;27;20460;-80
2023/09/19 13:13:41;;;;;;;5.53;2.47;;;26.20;1.00;;;;;;5106437;27;20499;-79
2023/09/19 13:16:09;;;;;;;3.30;1.80;;;26.00;1.00;;;;;;5107913;27;20462;-80
2023/09/19 13:18:45;;;;;;;5.60;2.70;;;25.80;1.00;;;;;;5088991;28;20947;-79
2023/09/19 13:21:22;;;;;;;5.60;3.00;;;25.50;1.00;;;;;;5108292;27;20594;-81
2023/09/19 13:23:54;;;;;;;3.93;2.10;;;25.20;1.00;;;;;;5110453;27;20939;-82